sensor_id;sensor_type;location;lat;lon;timestamp;P1;durP1;ratioP1;P2;durP2;ratioP2
9306;SDS011;4691;47.612;7.610;2022-11-12T00:02:08;82.38;;;34.53;;
9306;SDS011;4691;47.612;7.610;2022-11-12T00:04:34;88.15;;;33.20;;
9306;SDS011;4691;47.612;7.610;2022-11-12T00:06:59;75.97;;;31.73;;
9306;SDS011;4691;47.612;7.610;2022-11-12T00:09:24;83.70;;;32.13;;
9306;SDS011;4691;47.612;7.610;2022-11-12T00:11:50;82.32;;;32.83;;
9306;SDS011;4691;47.612;7.610;2022-11-12T00:14:15;75.70;;;31.05;;
9306;SDS011;4691;47.612;7.610;2022-11-12T00:16:40;85.15;;;33.85;;
9306;SDS011;4691;47.612;7.610;2022-11-12T00:19:06;93.43;;;35.85;;
9306;SDS011;4691;47.612;7.610;2022-11-12T00:21:31;85.68;;;34.47;;
9306;SDS011;4691;47.612;7.610;2022-11-12T00:23:56;84.97;;;33.22;;
9306;SDS011;4691;47.612;7.610;2022-11-12T00:26:21;85.32;;;33.22;;
9306;SDS011;4691;47.612;7.610;2022-11-12T00:28:47;85.18;;;34.55;;
9306;SDS011;4691;47.612;7.610;2022-11-12T00:31:12;89.30;;;34.40;;
9306;SDS011;4691;47.612;7.610;2022-11-12T00:33:38;85.68;;;33.50;;
9306;SDS011;4691;47.612;7.610;2022-11-12T00:36:05;89.50;;;32.85;;
9306;SDS011;4691;47.612;7.610;2022-11-12T00:38:30;81.78;;;34.20;;
9306;SDS011;4691;47.612;7.610;2022-11-12T00:40:58;93.90;;;35.80;;
9306;SDS011;4691;47.612;7.610;2022-11-12T00:43:23;96.63;;;36.30;;
9306;SDS011;4691;47.612;7.610;2022-11-12T00:45:49;86.57;;;33.03;;
9306;SDS011;4691;47.612;7.610;2022-11-12T00:48:14;77.05;;;30.65;;
9306;SDS011;4691;47.612;7.610;2022-11-12T00:50:40;88.18;;;33.67;;
9306;SDS011;4691;47.612;7.610;2022-11-12T00:53:05;69.32;;;29.52;;
9306;SDS011;4691;47.612;7.610;2022-11-12T00:55:30;87.97;;;33.47;;
9306;SDS011;4691;47.612;7.610;2022-11-12T00:57:56;81.28;;;32.63;;
9306;SDS011;4691;47.612;7.610;2022-11-12T01:00:23;94.90;;;33.78;;
9306;SDS011;4691;47.612;7.610;2022-11-12T01:02:48;76.75;;;31.58;;
9306;SDS011;4691;47.612;7.610;2022-11-12T01:05:14;88.13;;;33.90;;
9306;SDS011;4691;47.612;7.610;2022-11-12T01:07:39;87.95;;;34.10;;
9306;SDS011;4691;47.612;7.610;2022-11-12T01:10:05;83.10;;;32.70;;
9306;SDS011;4691;47.612;7.610;2022-11-12T01:12:31;81.20;;;32.45;;
9306;SDS011;4691;47.612;7.610;2022-11-12T01:14:57;85.82;;;32.28;;
9306;SDS011;4691;47.612;7.610;2022-11-12T01:17:22;90.20;;;34.45;;
9306;SDS011;4691;47.612;7.610;2022-11-12T01:19:48;93.25;;;32.42;;
9306;SDS011;4691;47.612;7.610;2022-11-12T01:22:14;90.80;;;34.83;;
9306;SDS011;4691;47.612;7.610;2022-11-12T01:24:39;96.43;;;35.88;;
9306;SDS011;4691;47.612;7.610;2022-11-12T01:27:04;90.50;;;33.03;;
9306;SDS011;4691;47.612;7.610;2022-11-12T01:29:30;95.85;;;33.65;;
9306;SDS011;4691;47.612;7.610;2022-11-12T01:31:55;95.40;;;35.75;;
9306;SDS011;4691;47.612;7.610;2022-11-12T01:34:21;80.07;;;32.75;;
9306;SDS011;4691;47.612;7.610;2022-11-12T01:36:46;83.20;;;32.00;;
9306;SDS011;4691;47.612;7.610;2022-11-12T01:39:11;89.90;;;34.70;;
9306;SDS011;4691;47.612;7.610;2022-11-12T01:41:37;90.65;;;33.55;;
9306;SDS011;4691;47.612;7.610;2022-11-12T01:46:58;98.80;;;34.75;;
9306;SDS011;4691;47.612;7.610;2022-11-12T01:50:04;87.35;;;33.17;;
9306;SDS011;4691;47.612;7.610;2022-11-12T01:52:40;84.47;;;32.05;;
9306;SDS011;4691;47.612;7.610;2022-11-12T01:55:12;75.78;;;30.05;;
9306;SDS011;4691;47.612;7.610;2022-11-12T01:57:42;91.38;;;33.97;;
9306;SDS011;4691;47.612;7.610;2022-11-12T02:00:12;83.70;;;32.67;;
9306;SDS011;4691;47.612;7.610;2022-11-12T02:02:38;86.93;;;33.60;;
9306;SDS011;4691;47.612;7.610;2022-11-12T02:05:08;83.72;;;32.63;;
9306;SDS011;4691;47.612;7.610;2022-11-12T02:07:36;93.20;;;33.50;;
9306;SDS011;4691;47.612;7.610;2022-11-12T02:10:05;91.03;;;32.72;;
9306;SDS011;4691;47.612;7.610;2022-11-12T02:12:32;85.00;;;33.70;;
9306;SDS011;4691;47.612;7.610;2022-11-12T02:15:17;91.95;;;34.38;;
9306;SDS011;4691;47.612;7.610;2022-11-12T02:17:42;99.47;;;35.38;;
9306;SDS011;4691;47.612;7.610;2022-11-12T02:20:08;92.38;;;33.75;;
9306;SDS011;4691;47.612;7.610;2022-11-12T02:22:35;77.45;;;31.10;;
9306;SDS011;4691;47.612;7.610;2022-11-12T02:25:00;92.97;;;32.80;;
9306;SDS011;4691;47.612;7.610;2022-11-12T02:27:25;96.32;;;34.78;;
9306;SDS011;4691;47.612;7.610;2022-11-12T02:29:51;102.32;;;34.92;;
9306;SDS011;4691;47.612;7.610;2022-11-12T02:32:16;91.28;;;33.80;;
9306;SDS011;4691;47.612;7.610;2022-11-12T02:34:41;92.43;;;34.10;;
9306;SDS011;4691;47.612;7.610;2022-11-12T02:37:07;95.22;;;34.33;;
9306;SDS011;4691;47.612;7.610;2022-11-12T02:39:32;78.63;;;32.78;;
9306;SDS011;4691;47.612;7.610;2022-11-12T02:41:57;80.60;;;31.25;;
9306;SDS011;4691;47.612;7.610;2022-11-12T02:44:23;101.03;;;35.72;;
9306;SDS011;4691;47.612;7.610;2022-11-12T02:46:49;76.32;;;32.05;;
9306;SDS011;4691;47.612;7.610;2022-11-12T02:49:14;84.53;;;32.40;;
9306;SDS011;4691;47.612;7.610;2022-11-12T02:51:39;75.32;;;31.70;;
9306;SDS011;4691;47.612;7.610;2022-11-12T02:54:05;79.43;;;34.63;;
9306;SDS011;4691;47.612;7.610;2022-11-12T02:56:30;72.88;;;33.83;;
9306;SDS011;4691;47.612;7.610;2022-11-12T02:58:56;90.13;;;39.65;;
9306;SDS011;4691;47.612;7.610;2022-11-12T03:01:21;86.47;;;36.15;;
9306;SDS011;4691;47.612;7.610;2022-11-12T03:03:47;80.82;;;34.63;;
9306;SDS011;4691;47.612;7.610;2022-11-12T03:06:12;69.65;;;31.80;;
9306;SDS011;4691;47.612;7.610;2022-11-12T03:08:37;72.40;;;33.65;;
9306;SDS011;4691;47.612;7.610;2022-11-12T03:11:06;82.07;;;36.45;;
9306;SDS011;4691;47.612;7.610;2022-11-12T03:13:36;74.88;;;34.53;;
9306;SDS011;4691;47.612;7.610;2022-11-12T03:19:35;96.90;;;36.05;;
9306;SDS011;4691;47.612;7.610;2022-11-12T03:22:00;83.45;;;35.78;;
9306;SDS011;4691;47.612;7.610;2022-11-12T03:24:26;81.78;;;33.65;;
9306;SDS011;4691;47.612;7.610;2022-11-12T03:26:52;85.70;;;34.38;;
9306;SDS011;4691;47.612;7.610;2022-11-12T03:29:17;84.03;;;32.67;;
9306;SDS011;4691;47.612;7.610;2022-11-12T03:31:42;69.13;;;30.30;;
9306;SDS011;4691;47.612;7.610;2022-11-12T03:34:09;69.53;;;32.10;;
9306;SDS011;4691;47.612;7.610;2022-11-12T03:36:34;80.93;;;34.42;;
9306;SDS011;4691;47.612;7.610;2022-11-12T03:39:00;73.60;;;30.58;;
9306;SDS011;4691;47.612;7.610;2022-11-12T03:41:25;73.55;;;30.40;;
9306;SDS011;4691;47.612;7.610;2022-11-12T03:43:50;60.53;;;26.00;;
9306;SDS011;4691;47.612;7.610;2022-11-12T03:46:15;49.67;;;24.17;;
9306;SDS011;4691;47.612;7.610;2022-11-12T03:48:41;57.97;;;26.23;;
9306;SDS011;4691;47.612;7.610;2022-11-12T03:51:06;52.60;;;25.10;;
9306;SDS011;4691;47.612;7.610;2022-11-12T03:53:31;50.00;;;22.90;;
9306;SDS011;4691;47.612;7.610;2022-11-12T03:55:57;45.33;;;22.95;;
9306;SDS011;4691;47.612;7.610;2022-11-12T03:58:22;48.15;;;23.60;;
9306;SDS011;4691;47.612;7.610;2022-11-12T04:00:47;33.67;;;18.45;;
9306;SDS011;4691;47.612;7.610;2022-11-12T04:03:13;53.95;;;24.83;;
9306;SDS011;4691;47.612;7.610;2022-11-12T04:05:38;45.50;;;22.95;;
9306;SDS011;4691;47.612;7.610;2022-11-12T04:08:23;36.50;;;19.30;;
9306;SDS011;4691;47.612;7.610;2022-11-12T04:11:02;58.58;;;22.27;;
9306;SDS011;4691;47.612;7.610;2022-11-12T04:13:38;29.42;;;16.60;;
9306;SDS011;4691;47.612;7.610;2022-11-12T04:16:05;30.35;;;16.38;;
9306;SDS011;4691;47.612;7.610;2022-11-12T04:18:50;40.58;;;19.70;;
9306;SDS011;4691;47.612;7.610;2022-11-12T04:21:40;54.53;;;20.67;;
9306;SDS011;4691;47.612;7.610;2022-11-12T04:29:43;172.02;;;26.88;;
9306;SDS011;4691;47.612;7.610;2022-11-12T04:32:28;61.88;;;21.50;;
9306;SDS011;4691;47.612;7.610;2022-11-12T04:34:54;65.15;;;23.52;;
9306;SDS011;4691;47.612;7.610;2022-11-12T04:37:21;106.90;;;21.50;;
9306;SDS011;4691;47.612;7.610;2022-11-12T04:39:47;31.25;;;16.83;;
9306;SDS011;4691;47.612;7.610;2022-11-12T04:42:12;55.13;;;19.15;;
9306;SDS011;4691;47.612;7.610;2022-11-12T04:44:56;51.05;;;20.65;;
9306;SDS011;4691;47.612;7.610;2022-11-12T04:47:35;38.20;;;19.80;;
9306;SDS011;4691;47.612;7.610;2022-11-12T04:50:03;62.85;;;21.20;;
9306;SDS011;4691;47.612;7.610;2022-11-12T04:52:37;34.00;;;18.15;;
9306;SDS011;4691;47.612;7.610;2022-11-12T04:55:02;58.28;;;20.48;;
9306;SDS011;4691;47.612;7.610;2022-11-12T04:57:28;91.00;;;22.15;;
9306;SDS011;4691;47.612;7.610;2022-11-12T04:59:53;116.93;;;24.98;;
9306;SDS011;4691;47.612;7.610;2022-11-12T05:02:18;155.27;;;25.58;;
9306;SDS011;4691;47.612;7.610;2022-11-12T05:04:44;69.47;;;21.10;;
9306;SDS011;4691;47.612;7.610;2022-11-12T05:07:09;70.85;;;19.65;;
9306;SDS011;4691;47.612;7.610;2022-11-12T05:09:35;109.15;;;22.30;;
9306;SDS011;4691;47.612;7.610;2022-11-12T05:12:01;35.33;;;16.80;;
9306;SDS011;4691;47.612;7.610;2022-11-12T05:14:26;32.85;;;16.08;;
9306;SDS011;4691;47.612;7.610;2022-11-12T05:16:51;30.27;;;16.25;;
9306;SDS011;4691;47.612;7.610;2022-11-12T05:19:17;155.75;;;21.65;;
9306;SDS011;4691;47.612;7.610;2022-11-12T05:21:43;151.57;;;22.75;;
9306;SDS011;4691;47.612;7.610;2022-11-12T05:24:27;131.63;;;19.23;;
9306;SDS011;4691;47.612;7.610;2022-11-12T05:26:53;23.33;;;15.00;;
9306;SDS011;4691;47.612;7.610;2022-11-12T05:29:18;32.95;;;15.55;;
9306;SDS011;4691;47.612;7.610;2022-11-12T05:31:44;36.00;;;16.35;;
9306;SDS011;4691;47.612;7.610;2022-11-12T05:34:10;35.50;;;15.80;;
9306;SDS011;4691;47.612;7.610;2022-11-12T05:36:35;76.43;;;20.70;;
9306;SDS011;4691;47.612;7.610;2022-11-12T05:39:01;33.70;;;17.20;;
9306;SDS011;4691;47.612;7.610;2022-11-12T05:41:27;26.30;;;15.65;;
9306;SDS011;4691;47.612;7.610;2022-11-12T05:43:52;81.10;;;22.90;;
9306;SDS011;4691;47.612;7.610;2022-11-12T05:46:18;25.98;;;15.30;;
9306;SDS011;4691;47.612;7.610;2022-11-12T05:48:43;29.17;;;16.77;;
9306;SDS011;4691;47.612;7.610;2022-11-12T05:51:08;37.85;;;18.13;;
9306;SDS011;4691;47.612;7.610;2022-11-12T05:53:34;35.03;;;18.00;;
9306;SDS011;4691;47.612;7.610;2022-11-12T05:56:00;35.15;;;19.10;;
9306;SDS011;4691;47.612;7.610;2022-11-12T05:58:26;31.27;;;17.75;;
9306;SDS011;4691;47.612;7.610;2022-11-12T06:00:51;26.42;;;15.88;;
9306;SDS011;4691;47.612;7.610;2022-11-12T06:03:17;26.80;;;15.27;;
9306;SDS011;4691;47.612;7.610;2022-11-12T06:05:42;31.40;;;17.63;;
9306;SDS011;4691;47.612;7.610;2022-11-12T06:08:08;64.25;;;21.45;;
9306;SDS011;4691;47.612;7.610;2022-11-12T06:10:33;116.63;;;24.52;;
9306;SDS011;4691;47.612;7.610;2022-11-12T06:12:58;40.28;;;17.42;;
9306;SDS011;4691;47.612;7.610;2022-11-12T06:15:24;291.15;;;30.27;;
9306;SDS011;4691;47.612;7.610;2022-11-12T06:17:52;306.67;;;33.75;;
9306;SDS011;4691;47.612;7.610;2022-11-12T06:23:55;30.27;;;16.88;;
9306;SDS011;4691;47.612;7.610;2022-11-12T06:26:22;58.95;;;20.65;;
9306;SDS011;4691;47.612;7.610;2022-11-12T06:28:49;181.70;;;23.20;;
9306;SDS011;4691;47.612;7.610;2022-11-12T06:31:15;353.45;;;32.20;;
9306;SDS011;4691;47.612;7.610;2022-11-12T06:33:40;173.93;;;23.83;;
9306;SDS011;4691;47.612;7.610;2022-11-12T06:36:06;31.35;;;17.38;;
9306;SDS011;4691;47.612;7.610;2022-11-12T06:38:32;98.40;;;17.27;;
9306;SDS011;4691;47.612;7.610;2022-11-12T06:40:58;205.13;;;24.58;;
9306;SDS011;4691;47.612;7.610;2022-11-12T06:43:24;128.48;;;21.20;;
9306;SDS011;4691;47.612;7.610;2022-11-12T06:45:51;77.85;;;15.80;;
9306;SDS011;4691;47.612;7.610;2022-11-12T06:48:16;129.18;;;19.35;;
9306;SDS011;4691;47.612;7.610;2022-11-12T06:50:42;145.10;;;19.70;;
9306;SDS011;4691;47.612;7.610;2022-11-12T06:53:07;41.80;;;16.40;;
9306;SDS011;4691;47.612;7.610;2022-11-12T06:55:32;59.83;;;16.83;;
9306;SDS011;4691;47.612;7.610;2022-11-12T06:57:58;294.00;;;27.52;;
9306;SDS011;4691;47.612;7.610;2022-11-12T07:00:23;69.95;;;21.25;;
9306;SDS011;4691;47.612;7.610;2022-11-12T07:02:48;43.22;;;18.92;;
9306;SDS011;4691;47.612;7.610;2022-11-12T07:05:13;70.90;;;23.10;;
9306;SDS011;4691;47.612;7.610;2022-11-12T07:07:39;31.00;;;18.52;;
9306;SDS011;4691;47.612;7.610;2022-11-12T07:10:04;52.97;;;19.20;;
9306;SDS011;4691;47.612;7.610;2022-11-12T07:12:30;87.13;;;23.75;;
9306;SDS011;4691;47.612;7.610;2022-11-12T07:14:55;73.47;;;22.73;;
9306;SDS011;4691;47.612;7.610;2022-11-12T07:17:21;62.63;;;23.00;;
9306;SDS011;4691;47.612;7.610;2022-11-12T07:19:46;38.67;;;20.98;;
9306;SDS011;4691;47.612;7.610;2022-11-12T07:22:11;36.55;;;18.85;;
9306;SDS011;4691;47.612;7.610;2022-11-12T07:24:37;65.80;;;27.40;;
9306;SDS011;4691;47.612;7.610;2022-11-12T07:27:02;54.88;;;27.92;;
9306;SDS011;4691;47.612;7.610;2022-11-12T07:29:27;41.50;;;25.23;;
9306;SDS011;4691;47.612;7.610;2022-11-12T07:31:52;146.93;;;26.35;;
9306;SDS011;4691;47.612;7.610;2022-11-12T07:34:18;51.42;;;19.05;;
9306;SDS011;4691;47.612;7.610;2022-11-12T07:36:43;48.28;;;20.73;;
9306;SDS011;4691;47.612;7.610;2022-11-12T07:39:08;179.38;;;25.27;;
9306;SDS011;4691;47.612;7.610;2022-11-12T07:41:34;73.70;;;21.50;;
9306;SDS011;4691;47.612;7.610;2022-11-12T07:43:59;145.70;;;24.65;;
9306;SDS011;4691;47.612;7.610;2022-11-12T07:46:25;54.10;;;18.65;;
9306;SDS011;4691;47.612;7.610;2022-11-12T07:48:51;125.18;;;28.38;;
9306;SDS011;4691;47.612;7.610;2022-11-12T07:51:18;107.15;;;23.92;;
9306;SDS011;4691;47.612;7.610;2022-11-12T07:53:48;103.90;;;25.95;;
9306;SDS011;4691;47.612;7.610;2022-11-12T07:56:15;88.93;;;23.45;;
9306;SDS011;4691;47.612;7.610;2022-11-12T07:58:42;54.60;;;20.10;;
9306;SDS011;4691;47.612;7.610;2022-11-12T08:01:08;93.72;;;22.40;;
9306;SDS011;4691;47.612;7.610;2022-11-12T08:03:52;56.50;;;18.63;;
9306;SDS011;4691;47.612;7.610;2022-11-12T08:06:17;66.70;;;21.25;;
9306;SDS011;4691;47.612;7.610;2022-11-12T08:08:43;35.30;;;20.17;;
9306;SDS011;4691;47.612;7.610;2022-11-12T08:11:08;33.95;;;18.67;;
9306;SDS011;4691;47.612;7.610;2022-11-12T08:13:34;167.32;;;29.15;;
9306;SDS011;4691;47.612;7.610;2022-11-12T08:15:59;107.25;;;26.65;;
9306;SDS011;4691;47.612;7.610;2022-11-12T08:18:25;82.35;;;22.98;;
9306;SDS011;4691;47.612;7.610;2022-11-12T08:20:51;40.08;;;19.73;;
9306;SDS011;4691;47.612;7.610;2022-11-12T08:23:17;33.60;;;19.02;;
9306;SDS011;4691;47.612;7.610;2022-11-12T08:25:42;53.28;;;20.80;;
9306;SDS011;4691;47.612;7.610;2022-11-12T08:28:08;79.28;;;26.13;;
9306;SDS011;4691;47.612;7.610;2022-11-12T08:30:33;63.05;;;24.92;;
9306;SDS011;4691;47.612;7.610;2022-11-12T08:33:01;68.38;;;26.02;;
9306;SDS011;4691;47.612;7.610;2022-11-12T08:35:29;74.20;;;25.13;;
9306;SDS011;4691;47.612;7.610;2022-11-12T08:37:56;47.92;;;18.80;;
9306;SDS011;4691;47.612;7.610;2022-11-12T08:40:26;96.93;;;25.58;;
9306;SDS011;4691;47.612;7.610;2022-11-12T08:42:56;58.30;;;28.08;;
9306;SDS011;4691;47.612;7.610;2022-11-12T08:45:25;51.33;;;19.70;;
9306;SDS011;4691;47.612;7.610;2022-11-12T08:47:51;80.45;;;22.13;;
9306;SDS011;4691;47.612;7.610;2022-11-12T08:50:17;83.47;;;25.30;;
9306;SDS011;4691;47.612;7.610;2022-11-12T08:52:43;39.35;;;20.65;;
9306;SDS011;4691;47.612;7.610;2022-11-12T08:55:08;46.50;;;21.45;;
9306;SDS011;4691;47.612;7.610;2022-11-12T08:57:40;29.23;;;16.75;;
9306;SDS011;4691;47.612;7.610;2022-11-12T09:00:07;33.63;;;16.83;;
9306;SDS011;4691;47.612;7.610;2022-11-12T09:02:33;44.35;;;20.48;;
9306;SDS011;4691;47.612;7.610;2022-11-12T09:04:59;34.40;;;20.05;;
9306;SDS011;4691;47.612;7.610;2022-11-12T09:07:24;43.55;;;20.63;;
9306;SDS011;4691;47.612;7.610;2022-11-12T09:09:49;47.55;;;20.98;;
9306;SDS011;4691;47.612;7.610;2022-11-12T09:12:14;51.80;;;22.33;;
9306;SDS011;4691;47.612;7.610;2022-11-12T09:14:43;43.72;;;21.45;;
9306;SDS011;4691;47.612;7.610;2022-11-12T09:17:09;33.65;;;18.67;;
9306;SDS011;4691;47.612;7.610;2022-11-12T09:19:34;41.70;;;22.33;;
9306;SDS011;4691;47.612;7.610;2022-11-12T09:22:00;37.47;;;20.00;;
9306;SDS011;4691;47.612;7.610;2022-11-12T09:24:25;33.30;;;19.27;;
9306;SDS011;4691;47.612;7.610;2022-11-12T09:26:54;46.90;;;26.13;;
9306;SDS011;4691;47.612;7.610;2022-11-12T09:29:19;43.15;;;24.35;;
9306;SDS011;4691;47.612;7.610;2022-11-12T09:31:45;42.00;;;24.27;;
9306;SDS011;4691;47.612;7.610;2022-11-12T09:34:10;39.60;;;22.38;;
9306;SDS011;4691;47.612;7.610;2022-11-12T09:36:36;37.35;;;21.33;;
9306;SDS011;4691;47.612;7.610;2022-11-12T09:39:01;41.85;;;23.08;;
9306;SDS011;4691;47.612;7.610;2022-11-12T09:41:36;47.88;;;25.67;;
9306;SDS011;4691;47.612;7.610;2022-11-12T09:46:47;41.85;;;24.63;;
9306;SDS011;4691;47.612;7.610;2022-11-12T09:49:18;39.70;;;23.13;;
9306;SDS011;4691;47.612;7.610;2022-11-12T09:51:52;33.40;;;19.98;;
9306;SDS011;4691;47.612;7.610;2022-11-12T09:54:21;35.00;;;21.38;;
9306;SDS011;4691;47.612;7.610;2022-11-12T09:56:48;33.95;;;20.08;;
9306;SDS011;4691;47.612;7.610;2022-11-12T09:59:14;37.22;;;22.38;;
9306;SDS011;4691;47.612;7.610;2022-11-12T10:06:48;39.40;;;23.13;;
9306;SDS011;4691;47.612;7.610;2022-11-12T10:09:24;41.35;;;22.42;;
9306;SDS011;4691;47.612;7.610;2022-11-12T10:12:00;41.80;;;23.23;;
9306;SDS011;4691;47.612;7.610;2022-11-12T10:15:02;34.55;;;20.77;;
9306;SDS011;4691;47.612;7.610;2022-11-12T10:17:55;45.67;;;26.73;;
9306;SDS011;4691;47.612;7.610;2022-11-12T10:20:24;39.58;;;23.38;;
9306;SDS011;4691;47.612;7.610;2022-11-12T10:25:40;38.40;;;23.30;;
9306;SDS011;4691;47.612;7.610;2022-11-12T10:30:51;33.97;;;21.35;;
9306;SDS011;4691;47.612;7.610;2022-11-12T10:33:20;39.72;;;22.38;;
9306;SDS011;4691;47.612;7.610;2022-11-12T10:35:45;36.80;;;21.38;;
9306;SDS011;4691;47.612;7.610;2022-11-12T10:38:11;41.25;;;23.27;;
9306;SDS011;4691;47.612;7.610;2022-11-12T10:40:42;40.63;;;23.70;;
9306;SDS011;4691;47.612;7.610;2022-11-12T10:45:42;35.63;;;21.83;;
9306;SDS011;4691;47.612;7.610;2022-11-12T10:51:03;31.27;;;19.65;;
9306;SDS011;4691;47.612;7.610;2022-11-12T10:53:44;36.45;;;21.23;;
9306;SDS011;4691;47.612;7.610;2022-11-12T10:56:26;32.03;;;20.30;;
9306;SDS011;4691;47.612;7.610;2022-11-12T11:01:41;36.15;;;22.00;;
9306;SDS011;4691;47.612;7.610;2022-11-12T11:04:16;39.22;;;23.50;;
9306;SDS011;4691;47.612;7.610;2022-11-12T11:07:15;39.58;;;22.48;;
9306;SDS011;4691;47.612;7.610;2022-11-12T11:09:52;32.60;;;19.73;;
9306;SDS011;4691;47.612;7.610;2022-11-12T11:12:24;34.97;;;21.52;;
9306;SDS011;4691;47.612;7.610;2022-11-12T11:15:14;35.45;;;21.00;;
9306;SDS011;4691;47.612;7.610;2022-11-12T11:20:25;38.55;;;22.02;;
9306;SDS011;4691;47.612;7.610;2022-11-12T11:23:06;40.03;;;22.05;;
9306;SDS011;4691;47.612;7.610;2022-11-12T11:25:41;36.25;;;21.42;;
9306;SDS011;4691;47.612;7.610;2022-11-12T11:30:51;33.53;;;19.80;;
9306;SDS011;4691;47.612;7.610;2022-11-12T11:33:25;37.05;;;20.40;;
9306;SDS011;4691;47.612;7.610;2022-11-12T11:36:08;33.83;;;19.60;;
9306;SDS011;4691;47.612;7.610;2022-11-12T11:39:02;33.00;;;19.58;;
9306;SDS011;4691;47.612;7.610;2022-11-12T11:42:02;38.53;;;20.95;;
9306;SDS011;4691;47.612;7.610;2022-11-12T11:44:43;30.60;;;18.52;;
9306;SDS011;4691;47.612;7.610;2022-11-12T11:52:31;33.72;;;20.02;;
9306;SDS011;4691;47.612;7.610;2022-11-12T11:58:28;30.88;;;19.52;;
9306;SDS011;4691;47.612;7.610;2022-11-12T12:04:04;36.60;;;21.17;;
9306;SDS011;4691;47.612;7.610;2022-11-12T12:06:45;36.85;;;21.35;;
9306;SDS011;4691;47.612;7.610;2022-11-12T12:09:47;35.80;;;22.17;;
9306;SDS011;4691;47.612;7.610;2022-11-12T12:20:53;32.58;;;18.70;;
9306;SDS011;4691;47.612;7.610;2022-11-12T12:23:53;31.60;;;18.85;;
9306;SDS011;4691;47.612;7.610;2022-11-12T12:26:30;28.65;;;18.77;;
9306;SDS011;4691;47.612;7.610;2022-11-12T12:29:06;27.60;;;19.15;;
9306;SDS011;4691;47.612;7.610;2022-11-12T12:31:39;30.27;;;19.38;;
9306;SDS011;4691;47.612;7.610;2022-11-12T12:34:14;32.70;;;20.33;;
9306;SDS011;4691;47.612;7.610;2022-11-12T12:36:46;30.25;;;19.88;;
9306;SDS011;4691;47.612;7.610;2022-11-12T12:39:16;28.90;;;19.73;;
9306;SDS011;4691;47.612;7.610;2022-11-12T12:44:17;36.13;;;22.25;;
9306;SDS011;4691;47.612;7.610;2022-11-12T12:46:55;36.67;;;22.13;;
9306;SDS011;4691;47.612;7.610;2022-11-12T12:49:27;40.92;;;23.23;;
9306;SDS011;4691;47.612;7.610;2022-11-12T12:51:57;38.63;;;22.15;;
9306;SDS011;4691;47.612;7.610;2022-11-12T12:57:00;34.28;;;20.40;;
9306;SDS011;4691;47.612;7.610;2022-11-12T12:59:27;45.72;;;24.00;;
9306;SDS011;4691;47.612;7.610;2022-11-12T13:02:00;42.90;;;24.73;;
9306;SDS011;4691;47.612;7.610;2022-11-12T13:07:16;46.22;;;25.75;;
9306;SDS011;4691;47.612;7.610;2022-11-12T13:09:44;46.10;;;25.98;;
9306;SDS011;4691;47.612;7.610;2022-11-12T13:12:09;45.90;;;25.40;;
9306;SDS011;4691;47.612;7.610;2022-11-12T13:19:36;43.30;;;24.73;;
9306;SDS011;4691;47.612;7.610;2022-11-12T13:37:40;53.50;;;26.42;;
9306;SDS011;4691;47.612;7.610;2022-11-12T13:40:40;55.50;;;26.85;;
9306;SDS011;4691;47.612;7.610;2022-11-12T13:43:10;45.28;;;24.95;;
9306;SDS011;4691;47.612;7.610;2022-11-12T13:51:00;52.22;;;27.17;;
9306;SDS011;4691;47.612;7.610;2022-11-12T13:53:29;56.63;;;29.33;;
9306;SDS011;4691;47.612;7.610;2022-11-12T13:55:56;61.85;;;29.55;;
9306;SDS011;4691;47.612;7.610;2022-11-12T13:58:29;57.08;;;29.92;;
9306;SDS011;4691;47.612;7.610;2022-11-12T14:00:59;63.60;;;29.95;;
9306;SDS011;4691;47.612;7.610;2022-11-12T14:03:28;63.58;;;31.38;;
9306;SDS011;4691;47.612;7.610;2022-11-12T14:06:04;70.97;;;32.72;;
9306;SDS011;4691;47.612;7.610;2022-11-12T14:11:36;67.43;;;32.28;;
9306;SDS011;4691;47.612;7.610;2022-11-12T14:14:34;75.45;;;34.72;;
9306;SDS011;4691;47.612;7.610;2022-11-12T14:17:25;78.03;;;35.00;;
9306;SDS011;4691;47.612;7.610;2022-11-12T14:20:07;77.72;;;33.67;;
9306;SDS011;4691;47.612;7.610;2022-11-12T14:22:39;67.57;;;30.95;;
9306;SDS011;4691;47.612;7.610;2022-11-12T14:25:11;74.50;;;34.88;;
9306;SDS011;4691;47.612;7.610;2022-11-12T14:27:42;71.97;;;32.55;;
9306;SDS011;4691;47.612;7.610;2022-11-12T14:32:45;64.40;;;30.67;;
9306;SDS011;4691;47.612;7.610;2022-11-12T14:41:00;85.43;;;36.78;;
9306;SDS011;4691;47.612;7.610;2022-11-12T14:43:35;71.05;;;33.03;;
9306;SDS011;4691;47.612;7.610;2022-11-12T14:46:05;71.60;;;32.33;;
9306;SDS011;4691;47.612;7.610;2022-11-12T14:48:34;63.25;;;31.08;;
9306;SDS011;4691;47.612;7.610;2022-11-12T14:51:11;74.65;;;32.60;;
9306;SDS011;4691;47.612;7.610;2022-11-12T14:53:40;76.32;;;34.30;;
9306;SDS011;4691;47.612;7.610;2022-11-12T14:56:12;73.75;;;32.47;;
9306;SDS011;4691;47.612;7.610;2022-11-12T14:58:45;79.22;;;34.60;;
9306;SDS011;4691;47.612;7.610;2022-11-12T15:04:25;92.20;;;36.10;;
9306;SDS011;4691;47.612;7.610;2022-11-12T15:06:54;81.22;;;33.42;;
9306;SDS011;4691;47.612;7.610;2022-11-12T15:09:31;96.53;;;36.63;;
9306;SDS011;4691;47.612;7.610;2022-11-12T15:12:01;86.70;;;35.45;;
9306;SDS011;4691;47.612;7.610;2022-11-12T15:14:28;98.68;;;38.30;;
9306;SDS011;4691;47.612;7.610;2022-11-12T15:16:54;96.47;;;37.47;;
9306;SDS011;4691;47.612;7.610;2022-11-12T15:19:20;108.88;;;40.67;;
9306;SDS011;4691;47.612;7.610;2022-11-12T15:21:50;106.47;;;40.95;;
9306;SDS011;4691;47.612;7.610;2022-11-12T15:24:38;116.45;;;43.22;;
9306;SDS011;4691;47.612;7.610;2022-11-12T15:30:06;96.95;;;37.55;;
9306;SDS011;4691;47.612;7.610;2022-11-12T15:32:40;96.25;;;36.65;;
9306;SDS011;4691;47.612;7.610;2022-11-12T15:35:18;96.15;;;36.00;;
9306;SDS011;4691;47.612;7.610;2022-11-12T15:37:44;92.80;;;36.67;;
9306;SDS011;4691;47.612;7.610;2022-11-12T15:40:10;99.43;;;37.03;;
9306;SDS011;4691;47.612;7.610;2022-11-12T15:42:40;82.90;;;34.47;;
9306;SDS011;4691;47.612;7.610;2022-11-12T15:45:13;80.18;;;32.97;;
9306;SDS011;4691;47.612;7.610;2022-11-12T15:47:41;87.95;;;36.00;;
9306;SDS011;4691;47.612;7.610;2022-11-12T15:50:13;67.60;;;31.15;;
9306;SDS011;4691;47.612;7.610;2022-11-12T15:52:41;86.90;;;37.72;;
9306;SDS011;4691;47.612;7.610;2022-11-12T15:55:07;86.38;;;36.80;;
9306;SDS011;4691;47.612;7.610;2022-11-12T15:57:37;96.00;;;37.65;;
9306;SDS011;4691;47.612;7.610;2022-11-12T16:00:12;87.70;;;36.10;;
9306;SDS011;4691;47.612;7.610;2022-11-12T16:02:45;99.35;;;41.78;;
9306;SDS011;4691;47.612;7.610;2022-11-12T16:05:17;99.03;;;43.90;;
9306;SDS011;4691;47.612;7.610;2022-11-12T16:07:42;97.10;;;43.42;;
9306;SDS011;4691;47.612;7.610;2022-11-12T16:10:12;98.60;;;41.05;;
9306;SDS011;4691;47.612;7.610;2022-11-12T16:12:39;100.22;;;37.10;;
9306;SDS011;4691;47.612;7.610;2022-11-12T16:15:10;105.47;;;39.33;;
9306;SDS011;4691;47.612;7.610;2022-11-12T16:17:38;111.47;;;40.75;;
9306;SDS011;4691;47.612;7.610;2022-11-12T16:20:45;110.75;;;38.67;;
9306;SDS011;4691;47.612;7.610;2022-11-12T16:22:55;75.25;;;32.88;;
9306;SDS011;4691;47.612;7.610;2022-11-12T16:25:20;83.35;;;35.90;;
9306;SDS011;4691;47.612;7.610;2022-11-12T16:27:47;109.45;;;40.90;;
9306;SDS011;4691;47.612;7.610;2022-11-12T16:30:13;87.13;;;37.95;;
9306;SDS011;4691;47.612;7.610;2022-11-12T16:32:40;114.60;;;40.78;;
9306;SDS011;4691;47.612;7.610;2022-11-12T16:35:06;104.47;;;39.45;;
9306;SDS011;4691;47.612;7.610;2022-11-12T16:37:32;118.43;;;40.85;;
9306;SDS011;4691;47.612;7.610;2022-11-12T16:39:57;252.73;;;41.67;;
9306;SDS011;4691;47.612;7.610;2022-11-12T16:42:23;176.05;;;40.03;;
9306;SDS011;4691;47.612;7.610;2022-11-12T16:44:48;106.07;;;37.83;;
9306;SDS011;4691;47.612;7.610;2022-11-12T16:47:13;90.13;;;38.25;;
9306;SDS011;4691;47.612;7.610;2022-11-12T16:49:39;177.45;;;47.40;;
9306;SDS011;4691;47.612;7.610;2022-11-12T16:52:07;128.25;;;42.17;;